Time;durP1;ratioP1;P1;durP2;ratioP2;P2;SDS_P1;SDS_P2;PMS_P1;PMS_P2;Temp;Humidity;BMP_temperature;BMP_pressure;BME280_temperature;BME280_humidity;BME280_pressure;Samples;Min_cycle;Max_cycle;Signal;HPM_P1;HPM_P2
2021/01/19 00:01:08;;;;;;;6.50;2.70;;;2.80;89.90;;;;;;5021130;28;20449;-82
2021/01/19 00:03:34;;;;;;;5.95;2.30;;;2.70;89.40;;;;;;5021976;28;20170;-82
2021/01/19 00:06:01;;;;;;;4.90;3.30;;;2.70;89.90;;;;;;5022201;28;20518;-82
2021/01/19 00:08:26;;;;;;;3.97;2.80;;;2.70;89.90;;;;;;5022136;28;20430;-82
2021/01/19 00:10:52;;;;;;;5.07;2.73;;;2.60;89.60;;;;;;5017035;28;20632;-78
2021/01/19 00:13:20;;;;;;;3.40;2.07;;;2.60;90.30;;;;;;5016059;28;20639;-78
2021/01/19 00:15:47;;;;;;;5.68;2.67;;;2.50;90.10;;;;;;5016383;28;20177;-78
2021/01/19 00:18:14;;;;;;;7.60;2.47;;;2.50;90.10;;;;;;5016192;28;20690;-78
2021/01/19 00:20:40;;;;;;;11.48;3.25;;;2.50;90.50;;;;;;5015608;28;20643;-77
2021/01/19 00:23:06;;;;;;;3.78;2.65;;;2.50;90.50;;;;;;5015175;28;20647;-78
2021/01/19 00:25:32;;;;;;;7.00;2.30;;;2.50;90.20;;;;;;5015152;28;20170;-78
2021/01/19 00:27:58;;;;;;;4.50;2.70;;;2.50;90.20;;;;;;5015189;28;20198;-77
2021/01/19 00:30:24;;;;;;;8.55;2.67;;;2.50;90.50;;;;;;5015333;28;20518;-80
2021/01/19 00:32:49;;;;;;;3.30;2.10;;;2.40;90.50;;;;;;5017387;28;20178;-80
2021/01/19 00:35:15;;;;;;;11.33;3.83;;;2.40;90.20;;;;;;5016994;28;20421;-79
2021/01/19 00:37:41;;;;;;;6.07;2.77;;;2.40;90.20;;;;;;5016868;28;20601;-80
2021/01/19 00:40:07;;;;;;;6.87;3.03;;;2.40;90.50;;;;;;5017786;28;20706;-80
2021/01/19 00:42:33;;;;;;;7.13;2.35;;;2.40;90.30;;;;;;5019005;28;20221;-80
2021/01/19 00:44:59;;;;;;;6.73;3.10;;;2.30;90.50;;;;;;5017026;28;20646;-81
2021/01/19 00:47:24;;;;;;;5.10;2.77;;;2.40;90.50;;;;;;5016803;28;20441;-81
2021/01/19 00:49:50;;;;;;;4.87;2.30;;;2.40;90.50;;;;;;5018390;28;20170;-81
2021/01/19 00:52:16;;;;;;;6.20;3.53;;;2.40;90.60;;;;;;5018282;28;20175;-81
2021/01/19 00:54:43;;;;;;;4.30;2.77;;;2.40;90.20;;;;;;5017899;28;20182;-80
2021/01/19 00:57:09;;;;;;;3.47;2.00;;;2.40;90.30;;;;;;5017860;28;20234;-81
2021/01/19 00:59:35;;;;;;;5.38;2.70;;;2.40;90.10;;;;;;5018947;28;20643;-80
2021/01/19 01:02:01;;;;;;;10.48;3.50;;;2.50;89.90;;;;;;5018471;28;20194;-81
2021/01/19 01:04:27;;;;;;;9.73;2.40;;;2.40;89.90;;;;;;5018982;28;20638;-80
2021/01/19 01:06:53;;;;;;;5.20;3.57;;;2.40;89.80;;;;;;5018060;28;20627;-81
2021/01/19 01:09:19;;;;;;;6.80;4.05;;;2.40;90.20;;;;;;5018398;28;20178;-80
2021/01/19 01:11:45;;;;;;;2.33;2.13;;;2.40;90.20;;;;;;5018138;28;20181;-81
2021/01/19 01:14:13;;;;;;;6.72;2.45;;;2.40;89.90;;;;;;5018636;28;20175;-81
2021/01/19 01:20:41;;;;;;;7.80;3.50;;;2.50;89.80;;;;;;5019824;28;20186;-81
2021/01/19 01:23:07;;;;;;;7.18;3.38;;;2.50;89.50;;;;;;5017941;28;20201;-82
2021/01/19 01:25:33;;;;;;;6.27;3.47;;;2.40;90.30;;;;;;5018252;28;20170;-80
2021/01/19 01:27:59;;;;;;;3.40;2.60;;;2.50;90.10;;;;;;5017897;28;20434;-80
2021/01/19 01:30:25;;;;;;;8.80;3.05;;;2.50;90.10;;;;;;5018398;28;20413;-81
2021/01/19 01:32:51;;;;;;;4.53;2.28;;;2.50;89.90;;;;;;5018174;28;20260;-81
2021/01/19 01:35:23;;;;;;;6.00;2.80;;;2.50;89.90;;;;;;5017709;28;20175;-81
2021/01/19 01:37:51;;;;;;;10.55;2.78;;;2.40;90.20;;;;;;5017988;28;21043;-80
2021/01/19 01:40:19;;;;;;;5.55;2.45;;;2.30;91.00;;;;;;5017886;28;20174;-81
2021/01/19 01:42:45;;;;;;;8.95;2.10;;;2.20;91.10;;;;;;5017983;28;20445;-80
2021/01/19 01:45:12;;;;;;;7.40;2.83;;;2.20;91.00;;;;;;5018464;28;20194;-80
2021/01/19 01:47:39;;;;;;;5.50;3.30;;;2.20;90.90;;;;;;5017100;28;20804;-80
2021/01/19 01:50:08;;;;;;;4.03;2.25;;;2.20;91.00;;;;;;5016938;28;20174;-81
2021/01/19 01:52:33;;;;;;;6.18;2.67;;;2.10;91.00;;;;;;5017868;28;20842;-81
2021/01/19 01:54:59;;;;;;;8.43;2.60;;;2.10;91.10;;;;;;5017427;28;20213;-80
2021/01/19 01:57:25;;;;;;;8.50;2.63;;;2.10;91.10;;;;;;5017622;28;20524;-80
2021/01/19 01:59:59;;;;;;;9.07;3.30;;;2.10;91.40;;;;;;5016557;28;20565;-81
2021/01/19 02:02:25;;;;;;;6.45;3.00;;;2.00;91.50;;;;;;5015882;28;20167;-81
2021/01/19 02:04:51;;;;;;;6.85;2.90;;;1.90;91.60;;;;;;5016538;28;20171;-80
2021/01/19 02:11:02;;;;;;;8.68;2.75;;;2.00;91.20;;;;;;5018241;28;20213;-81
2021/01/19 02:13:34;;;;;;;5.95;2.80;;;1.90;91.30;;;;;;5016216;28;20309;-81
2021/01/19 02:19:39;;;;;;;11.57;3.97;;;1.80;91.60;;;;;;5018952;28;20193;-81
2021/01/19 02:22:25;;;;;;;10.15;4.00;;;1.80;91.70;;;;;;5000793;28;20711;-81
2021/01/19 02:25:18;;;;;;;4.40;2.47;;;1.70;91.80;;;;;;5017899;28;20248;-80
2021/01/19 02:28:08;;;;;;;5.00;2.38;;;1.70;91.90;;;;;;5017219;28;20241;-81
2021/01/19 02:31:05;;;;;;;6.93;3.20;;;1.70;91.90;;;;;;5017676;28;20558;-81
2021/01/19 02:34:01;;;;;;;7.32;2.80;;;1.70;92.00;;;;;;5018203;28;20333;-82
2021/01/19 02:37:23;;;;;;;3.75;2.60;;;1.70;92.00;;;;;;5016997;28;20678;-81
2021/01/19 02:40:02;;;;;;;8.13;3.08;;;1.70;92.00;;;;;;5017171;28;20170;-81
2021/01/19 02:42:34;;;;;;;6.13;3.20;;;1.70;92.10;;;;;;5017325;28;20221;-81
2021/01/19 02:45:05;;;;;;;6.47;3.30;;;1.60;92.40;;;;;;5017595;28;20209;-81
2021/01/19 02:47:31;;;;;;;6.38;3.10;;;1.60;92.50;;;;;;4998326;28;20222;-81
2021/01/19 02:49:57;;;;;;;5.10;3.40;;;1.60;92.30;;;;;;5010038;28;20185;-80
2021/01/19 02:52:24;;;;;;;7.40;3.07;;;1.60;92.70;;;;;;5016713;28;20417;-81
2021/01/19 02:54:51;;;;;;;15.15;3.65;;;1.60;92.60;;;;;;5016920;28;20421;-81
2021/01/19 02:57:37;;;;;;;6.63;2.80;;;1.50;92.90;;;;;;5016292;28;20202;-81
2021/01/19 03:00:12;;;;;;;4.40;2.95;;;1.50;92.90;;;;;;5016848;28;20640;-81
2021/01/19 03:02:39;;;;;;;4.30;2.65;;;1.60;92.90;;;;;;5016565;28;20213;-81
2021/01/19 03:05:09;;;;;;;9.35;3.17;;;1.60;92.90;;;;;;5017278;28;20175;-81
2021/01/19 03:07:42;;;;;;;9.73;3.20;;;1.60;92.90;;;;;;5017032;28;20199;-81
2021/01/19 03:10:08;;;;;;;5.07;2.67;;;1.50;92.80;;;;;;4999268;28;20186;-81
2021/01/19 03:12:38;;;;;;;7.05;2.55;;;1.60;92.90;;;;;;5000693;28;20175;-82
2021/01/19 03:15:05;;;;;;;8.27;3.08;;;1.60;92.90;;;;;;5000509;28;20172;-81
2021/01/19 03:17:30;;;;;;;5.55;2.50;;;1.60;92.90;;;;;;4999927;28;20213;-81
2021/01/19 03:19:59;;;;;;;10.93;3.13;;;1.70;92.70;;;;;;4999762;28;20274;-80
2021/01/19 03:22:25;;;;;;;7.18;2.30;;;1.60;92.60;;;;;;4999352;28;20241;-80
2021/01/19 03:24:51;;;;;;;7.30;3.90;;;1.70;92.70;;;;;;4999646;28;20184;-80
2021/01/19 03:27:16;;;;;;;5.53;3.03;;;1.70;92.60;;;;;;4999595;28;20438;-81
2021/01/19 03:29:42;;;;;;;10.07;4.20;;;1.70;92.60;;;;;;4999790;28;20667;-81
2021/01/19 03:32:08;;;;;;;12.30;2.77;;;1.80;92.30;;;;;;4999241;28;20524;-81
2021/01/19 03:34:33;;;;;;;4.80;2.30;;;1.80;92.20;;;;;;4999452;28;20778;-81
2021/01/19 03:37:01;;;;;;;4.93;2.53;;;1.80;92.60;;;;;;4997271;28;20203;-78
2021/01/19 03:39:26;;;;;;;5.53;2.80;;;1.90;92.10;;;;;;4996604;28;20993;-78
2021/01/19 03:41:52;;;;;;;7.70;2.37;;;1.80;91.90;;;;;;4996326;28;20171;-78
2021/01/19 03:44:18;;;;;;;12.73;3.23;;;1.90;91.80;;;;;;4996357;28;20777;-78
2021/01/19 03:46:44;;;;;;;5.97;2.43;;;1.90;91.60;;;;;;4996210;28;20418;-78
2021/01/19 03:49:09;;;;;;;3.20;2.40;;;1.90;91.60;;;;;;4997416;28;20410;-78
2021/01/19 03:51:35;;;;;;;9.73;2.67;;;2.00;91.60;;;;;;4995638;28;20514;-78
2021/01/19 03:54:02;;;;;;;5.07;2.30;;;2.00;91.40;;;;;;4996124;28;20419;-78
2021/01/19 03:56:27;;;;;;;5.05;2.25;;;2.00;91.30;;;;;;4996189;28;20456;-77
2021/01/19 03:58:53;;;;;;;6.77;2.00;;;2.00;91.30;;;;;;4996512;28;20282;-78
2021/01/19 04:01:19;;;;;;;7.73;2.60;;;2.00;91.30;;;;;;4996102;28;20619;-78
2021/01/19 04:03:45;;;;;;;7.57;2.00;;;2.10;91.00;;;;;;4995817;28;20217;-78
2021/01/19 04:06:10;;;;;;;3.37;2.43;;;2.10;91.10;;;;;;4996103;28;20175;-78
2021/01/19 04:08:37;;;;;;;11.70;2.95;;;2.10;90.60;;;;;;4994910;28;20560;-78
2021/01/19 04:11:04;;;;;;;7.95;3.03;;;2.10;90.80;;;;;;4994291;28;20215;-76
2021/01/19 04:13:30;;;;;;;6.80;2.20;;;2.10;90.40;;;;;;4994077;28;20662;-76
2021/01/19 04:15:56;;;;;;;3.67;2.27;;;2.10;90.20;;;;;;4994075;28;20176;-76
2021/01/19 04:18:23;;;;;;;6.07;2.43;;;2.10;90.50;;;;;;4993874;28;21052;-76
2021/01/19 04:20:49;;;;;;;5.50;2.40;;;2.20;90.10;;;;;;4993738;28;20853;-76
2021/01/19 04:23:18;;;;;;;8.02;2.95;;;2.20;89.90;;;;;;4993654;28;20579;-76
2021/01/19 04:25:45;;;;;;;5.38;2.40;;;2.20;89.80;;;;;;4994050;28;20167;-76
2021/01/19 04:28:12;;;;;;;3.72;2.25;;;2.10;90.10;;;;;;4993904;28;20536;-76
2021/01/19 04:30:41;;;;;;;7.55;2.40;;;2.00;90.30;;;;;;4993950;28;20590;-76
2021/01/19 04:33:07;;;;;;;5.13;2.00;;;2.00;90.40;;;;;;4996935;28;20217;-76
2021/01/19 04:35:33;;;;;;;4.50;2.90;;;2.00;90.70;;;;;;5013473;28;20177;-76
2021/01/19 04:37:59;;;;;;;3.60;2.40;;;2.00;90.50;;;;;;5013307;28;20206;-76
2021/01/19 04:40:25;;;;;;;8.63;2.90;;;2.00;90.50;;;;;;5014008;28;20408;-81
2021/01/19 04:42:51;;;;;;;10.23;2.95;;;1.90;90.30;;;;;;5014116;28;20414;-78
2021/01/19 04:45:17;;;;;;;8.25;2.90;;;1.90;90.50;;;;;;5014787;28;20584;-76
2021/01/19 04:47:43;;;;;;;4.78;2.15;;;1.80;90.80;;;;;;5013024;28;20221;-76
2021/01/19 04:50:11;;;;;;;7.00;2.67;;;1.80;90.90;;;;;;5013194;28;20228;-76
2021/01/19 04:52:42;;;;;;;8.70;2.95;;;1.90;90.80;;;;;;5012919;28;20181;-76
2021/01/19 04:55:12;;;;;;;4.85;2.80;;;1.90;91.10;;;;;;5013793;28;20217;-78
2021/01/19 04:57:39;;;;;;;5.25;2.40;;;1.90;91.00;;;;;;5013708;28;20202;-78
2021/01/19 05:00:30;;;;;;;3.38;2.20;;;1.90;90.70;;;;;;5013303;28;20573;-78
2021/01/19 05:03:02;;;;;;;3.70;2.30;;;1.90;90.70;;;;;;5005825;28;20178;-77
2021/01/19 05:05:48;;;;;;;4.20;2.80;;;2.00;90.50;;;;;;5013081;28;20544;-77
2021/01/19 05:08:17;;;;;;;6.07;2.45;;;2.00;90.40;;;;;;5013113;28;20201;-77
2021/01/19 05:11:01;;;;;;;5.30;3.05;;;2.00;90.40;;;;;;5012904;28;20182;-77
2021/01/19 05:13:48;;;;;;;7.18;2.95;;;2.00;90.40;;;;;;5013292;28;20178;-77
2021/01/19 05:16:16;;;;;;;7.15;3.13;;;2.00;90.70;;;;;;5013459;28;20308;-78
2021/01/19 05:18:43;;;;;;;6.93;3.45;;;2.00;90.70;;;;;;5012951;28;20604;-78
2021/01/19 05:21:09;;;;;;;7.25;3.20;;;2.00;90.70;;;;;;5013470;28;20253;-78
2021/01/19 05:23:35;;;;;;;4.63;2.53;;;1.90;90.80;;;;;;5013578;28;20182;-78
2021/01/19 05:26:03;;;;;;;11.23;3.50;;;1.90;90.80;;;;;;5013301;28;20558;-78
2021/01/19 05:28:42;;;;;;;5.38;2.50;;;1.90;90.80;;;;;;5013355;28;20439;-78
2021/01/19 05:31:14;;;;;;;7.05;2.65;;;1.80;91.40;;;;;;5013401;28;20538;-78
2021/01/19 05:33:53;;;;;;;5.18;2.65;;;1.80;91.50;;;;;;5012654;28;20620;-78
2021/01/19 05:36:19;;;;;;;11.50;2.53;;;1.80;91.30;;;;;;5013294;28;20167;-78
2021/01/19 05:38:49;;;;;;;7.70;2.30;;;1.70;91.50;;;;;;5013366;28;20190;-76
2021/01/19 05:41:35;;;;;;;8.57;3.58;;;1.60;91.60;;;;;;5014370;28;20174;-78
2021/01/19 05:44:21;;;;;;;4.63;2.95;;;1.70;92.20;;;;;;5013354;28;20190;-78
2021/01/19 05:46:50;;;;;;;9.00;2.85;;;1.70;91.80;;;;;;5013330;28;20545;-78
2021/01/19 05:49:23;;;;;;;4.80;2.45;;;1.60;91.50;;;;;;5013104;28;20177;-78
2021/01/19 05:51:54;;;;;;;4.72;2.70;;;1.60;91.40;;;;;;5013396;28;20166;-78
2021/01/19 05:54:23;;;;;;;9.25;2.55;;;1.60;91.60;;;;;;5013207;28;20308;-79
2021/01/19 05:56:50;;;;;;;4.60;3.00;;;1.60;91.30;;;;;;5012751;28;20195;-78
2021/01/19 05:59:43;;;;;;;6.22;2.88;;;1.60;91.70;;;;;;5013327;28;20181;-78
2021/01/19 06:02:14;;;;;;;8.27;2.90;;;1.50;91.50;;;;;;5010451;28;20265;-78
2021/01/19 06:04:40;;;;;;;4.32;2.20;;;1.50;91.50;;;;;;5013243;28;20163;-78
2021/01/19 06:07:08;;;;;;;5.47;2.53;;;1.50;91.50;;;;;;5012548;28;20221;-78
2021/01/19 06:09:35;;;;;;;5.20;2.80;;;1.50;91.40;;;;;;5013066;28;20170;-78
2021/01/19 06:12:04;;;;;;;5.72;3.25;;;1.50;91.50;;;;;;5012547;28;20261;-78
2021/01/19 06:14:31;;;;;;;9.02;3.28;;;1.50;91.60;;;;;;5013924;28;20178;-78
2021/01/19 06:17:11;;;;;;;9.70;3.70;;;1.50;91.60;;;;;;5013639;28;20248;-78
2021/01/19 06:19:38;;;;;;;9.68;3.88;;;1.60;91.30;;;;;;5013974;28;20235;-78
2021/01/19 06:22:06;;;;;;;7.95;3.50;;;1.60;91.10;;;;;;5013717;28;20174;-78
2021/01/19 06:24:34;;;;;;;6.00;3.10;;;1.50;90.90;;;;;;5013975;28;20654;-78
2021/01/19 06:27:00;;;;;;;6.00;3.00;;;1.50;91.00;;;;;;5013220;28;20600;-78
2021/01/19 06:29:28;;;;;;;5.22;2.88;;;1.50;90.90;;;;;;5013121;28;20175;-78
2021/01/19 06:31:56;;;;;;;17.83;3.55;;;1.50;90.60;;;;;;5013179;28;20182;-78
2021/01/19 06:34:30;;;;;;;23.05;5.13;;;1.40;91.30;;;;;;5012405;28;20646;-78
2021/01/19 06:36:56;;;;;;;6.43;2.97;;;1.40;91.50;;;;;;5012387;28;20208;-78
2021/01/19 06:39:38;;;;;;;8.13;3.45;;;1.30;91.50;;;;;;5012415;28;20174;-78
2021/01/19 06:42:14;;;;;;;9.88;4.13;;;1.30;91.50;;;;;;5011998;28;20163;-78
2021/01/19 06:44:46;;;;;;;6.20;3.10;;;1.40;91.50;;;;;;5013266;28;20185;-78
2021/01/19 06:47:14;;;;;;;8.23;3.28;;;1.30;91.40;;;;;;5016170;28;20213;-78
2021/01/19 06:49:40;;;;;;;7.22;4.10;;;1.40;91.20;;;;;;5016275;28;20209;-78
2021/01/19 06:52:10;;;;;;;10.52;3.78;;;1.30;91.40;;;;;;5015997;28;20220;-78
2021/01/19 06:55:02;;;;;;;10.30;4.63;;;1.40;91.40;;;;;;5016324;28;20209;-78
2021/01/19 06:57:52;;;;;;;7.32;3.15;;;1.40;91.10;;;;;;5015815;28;20697;-78
2021/01/19 07:00:21;;;;;;;11.95;3.10;;;1.30;91.00;;;;;;5016109;28;20627;-78
2021/01/19 07:02:49;;;;;;;5.78;3.60;;;1.20;91.20;;;;;;5015637;28;20220;-78
2021/01/19 07:05:18;;;;;;;9.98;3.85;;;1.20;91.80;;;;;;5015596;28;20516;-78
2021/01/19 07:07:45;;;;;;;7.65;3.50;;;1.20;91.80;;;;;;5016210;28;20194;-78
2021/01/19 07:10:13;;;;;;;4.75;2.63;;;1.10;91.80;;;;;;5016168;28;20229;-78
2021/01/19 07:12:48;;;;;;;6.13;3.42;;;1.00;92.10;;;;;;5015454;28;20265;-78
2021/01/19 07:15:19;;;;;;;9.15;3.67;;;1.00;92.10;;;;;;5015646;28;20257;-78
2021/01/19 07:18:11;;;;;;;9.27;4.10;;;1.00;92.00;;;;;;5015766;28;20288;-78
2021/01/19 07:20:51;;;;;;;7.20;3.40;;;1.00;92.10;;;;;;5015971;28;20216;-78
2021/01/19 07:23:34;;;;;;;7.72;3.33;;;1.00;91.90;;;;;;5016111;28;20319;-78
2021/01/19 07:26:00;;;;;;;12.52;4.00;;;1.00;92.10;;;;;;5015642;28;20305;-78
2021/01/19 07:28:26;;;;;;;9.70;3.50;;;1.00;92.00;;;;;;5015540;28;20221;-78
2021/01/19 07:30:52;;;;;;;13.20;4.13;;;1.00;92.00;;;;;;5015273;28;20229;-78
2021/01/19 07:33:19;;;;;;;7.68;3.40;;;0.90;92.30;;;;;;5015570;28;20178;-78
2021/01/19 07:35:45;;;;;;;8.05;3.72;;;0.90;92.10;;;;;;5015443;28;20545;-78
2021/01/19 07:38:11;;;;;;;5.80;3.17;;;1.00;92.10;;;;;;5015460;28;20202;-78
2021/01/19 07:40:45;;;;;;;5.27;3.70;;;1.00;92.00;;;;;;5015377;28;20175;-78
2021/01/19 07:43:19;;;;;;;12.45;3.40;;;1.00;92.00;;;;;;5015120;28;20194;-78
2021/01/19 07:45:53;;;;;;;12.68;4.25;;;1.00;92.00;;;;;;5015311;28;20167;-78
2021/01/19 07:48:31;;;;;;;6.13;3.80;;;1.00;92.00;;;;;;5015302;28;20563;-77
2021/01/19 07:51:10;;;;;;;5.40;3.65;;;1.00;92.20;;;;;;5014928;28;20253;-78
2021/01/19 07:53:49;;;;;;;9.65;3.70;;;1.00;91.80;;;;;;5014908;28;20174;-78
2021/01/19 07:56:23;;;;;;;13.95;2.95;;;1.10;91.80;;;;;;5013929;28;20556;-78
2021/01/19 07:58:49;;;;;;;21.92;5.55;;;1.10;91.80;;;;;;5014889;28;20556;-78
2021/01/19 08:01:29;;;;;;;10.73;3.70;;;1.20;91.10;;;;;;5014747;28;20531;-78
2021/01/19 08:04:07;;;;;;;7.90;3.42;;;1.20;90.80;;;;;;5015157;28;20174;-78
2021/01/19 08:06:32;;;;;;;3.85;2.70;;;1.30;90.60;;;;;;5015122;28;20174;-77
2021/01/19 08:09:20;;;;;;;5.60;2.95;;;1.30;90.60;;;;;;5014873;28;20252;-78
2021/01/19 08:11:46;;;;;;;4.90;2.88;;;1.40;90.20;;;;;;5015095;28;20182;-78
2021/01/19 08:14:12;;;;;;;6.45;3.47;;;1.40;90.10;;;;;;5014891;28;20695;-77
2021/01/19 08:16:47;;;;;;;13.90;4.20;;;1.50;89.90;;;;;;5014777;28;20286;-78
2021/01/19 08:19:16;;;;;;;9.75;3.00;;;1.60;89.80;;;;;;5014787;28;20220;-77
2021/01/19 08:21:53;;;;;;;7.22;2.85;;;1.70;89.40;;;;;;5014557;28;20542;-78
2021/01/19 08:24:21;;;;;;;6.50;3.13;;;1.70;89.10;;;;;;5014880;28;20194;-78
2021/01/19 08:26:47;;;;;;;6.95;4.05;;;1.80;89.20;;;;;;5014526;28;20746;-78
2021/01/19 08:29:20;;;;;;;7.60;4.28;;;1.90;88.50;;;;;;5014559;28;20182;-78
2021/01/19 08:32:01;;;;;;;5.90;3.17;;;1.90;87.80;;;;;;5014583;28;20171;-78
2021/01/19 08:34:32;;;;;;;9.57;3.42;;;2.00;87.70;;;;;;5014359;28;20178;-78
2021/01/19 08:37:00;;;;;;;7.53;3.63;;;2.00;87.70;;;;;;5014141;28;20193;-78
2021/01/19 08:39:27;;;;;;;8.90;3.30;;;2.00;87.40;;;;;;5014214;28;20185;-78
2021/01/19 08:41:54;;;;;;;6.65;3.50;;;2.10;87.10;;;;;;5013947;28;20178;-78
2021/01/19 08:44:21;;;;;;;6.55;3.13;;;2.10;87.10;;;;;;5013957;28;20266;-78
2021/01/19 08:46:48;;;;;;;6.28;3.40;;;2.10;87.10;;;;;;5014000;28;20238;-78
2021/01/19 08:49:17;;;;;;;6.57;3.40;;;2.20;87.30;;;;;;5013981;28;20571;-78
2021/01/19 08:51:50;;;;;;;8.35;4.00;;;2.20;86.90;;;;;;5013797;28;20182;-78
2021/01/19 08:54:16;;;;;;;10.73;4.35;;;2.30;86.70;;;;;;5014066;28;20185;-78
2021/01/19 08:56:46;;;;;;;8.05;3.60;;;2.40;86.60;;;;;;5014195;28;20226;-78
2021/01/19 08:59:17;;;;;;;7.80;3.50;;;2.50;85.80;;;;;;5013966;28;20241;-77
2021/01/19 09:01:48;;;;;;;8.30;3.40;;;2.60;85.30;;;;;;5013597;28;20265;-78
2021/01/19 09:04:23;;;;;;;8.90;4.18;;;2.70;84.90;;;;;;5013684;28;20550;-78
2021/01/19 09:06:49;;;;;;;8.80;4.00;;;2.80;84.40;;;;;;5013797;28;20221;-78
2021/01/19 09:09:22;;;;;;;10.75;3.95;;;3.00;83.50;;;;;;5013614;28;20179;-78
2021/01/19 09:11:51;;;;;;;13.82;3.50;;;3.00;83.40;;;;;;5013960;28;20170;-78
2021/01/19 09:14:23;;;;;;;14.20;4.40;;;3.10;83.30;;;;;;5014561;28;20181;-78
2021/01/19 09:16:49;;;;;;;11.07;4.20;;;3.10;82.60;;;;;;5014109;28;20607;-78
2021/01/19 09:19:15;;;;;;;13.87;5.57;;;3.10;81.90;;;;;;5014100;28;20198;-78
2021/01/19 09:21:40;;;;;;;13.73;4.70;;;3.20;82.60;;;;;;5014229;28;20453;-78
2021/01/19 09:24:21;;;;;;;9.70;4.60;;;3.20;82.40;;;;;;5014313;28;20202;-78
2021/01/19 09:26:58;;;;;;;16.23;4.85;;;3.10;81.90;;;;;;5014100;28;20500;-78
2021/01/19 09:29:25;;;;;;;11.23;4.40;;;3.20;83.40;;;;;;5013749;28;20171;-78
2021/01/19 09:31:51;;;;;;;8.85;5.22;;;3.10;82.40;;;;;;5013824;28;20171;-78
2021/01/19 09:34:21;;;;;;;9.07;4.03;;;3.20;82.10;;;;;;5013982;28;20179;-78
2021/01/19 09:36:50;;;;;;;7.88;3.92;;;3.20;82.10;;;;;;5014069;28;20655;-79
2021/01/19 09:39:30;;;;;;;8.00;3.55;;;3.20;82.00;;;;;;5014117;28;20176;-82
2021/01/19 09:42:01;;;;;;;13.27;4.88;;;3.20;82.00;;;;;;5018223;28;20170;-82
2021/01/19 09:44:31;;;;;;;11.88;4.50;;;3.10;81.90;;;;;;5018477;28;20171;-82
2021/01/19 09:47:01;;;;;;;11.27;4.25;;;3.10;81.30;;;;;;5017747;28;20266;-82
2021/01/19 09:49:28;;;;;;;13.65;5.05;;;3.10;82.10;;;;;;5018141;28;20178;-82
2021/01/19 09:51:54;;;;;;;8.23;5.20;;;3.10;81.90;;;;;;5017844;28;20247;-82
2021/01/19 09:54:24;;;;;;;10.05;4.95;;;3.10;81.90;;;;;;5018089;28;20182;-82
2021/01/19 09:56:59;;;;;;;11.55;5.32;;;3.10;81.30;;;;;;5016752;28;20191;-82
2021/01/19 09:59:30;;;;;;;10.07;4.00;;;3.10;82.10;;;;;;5016310;28;20265;-81
2021/01/19 10:02:00;;;;;;;15.02;5.13;;;3.10;82.60;;;;;;5016437;28;20190;-81
2021/01/19 10:04:29;;;;;;;13.10;3.83;;;3.10;82.30;;;;;;5016313;28;20155;-81
2021/01/19 10:07:05;;;;;;;11.20;4.97;;;3.10;82.00;;;;;;5016811;28;20217;-81
2021/01/19 10:09:31;;;;;;;15.10;5.55;;;3.10;82.10;;;;;;5016658;28;20671;-81
2021/01/19 10:11:59;;;;;;;8.70;5.05;;;3.10;82.70;;;;;;5016335;28;20266;-81
2021/01/19 10:14:33;;;;;;;16.90;5.15;;;3.10;82.70;;;;;;5016939;28;20182;-81
2021/01/19 10:17:00;;;;;;;11.38;6.07;;;3.20;83.00;;;;;;5016236;28;20200;-81
2021/01/19 10:19:28;;;;;;;15.50;5.10;;;3.30;83.10;;;;;;5016290;28;20204;-81
2021/01/19 10:21:56;;;;;;;9.55;5.65;;;3.40;83.50;;;;;;5017554;28;20261;-81
2021/01/19 10:24:24;;;;;;;19.33;5.80;;;3.40;82.80;;;;;;5017031;28;20181;-81
2021/01/19 10:27:03;;;;;;;12.23;5.35;;;3.40;83.10;;;;;;5016908;28;20185;-80
2021/01/19 10:29:37;;;;;;;9.65;4.90;;;3.60;82.40;;;;;;5017141;28;20232;-81
2021/01/19 10:32:05;;;;;;;12.45;4.82;;;3.60;82.60;;;;;;5017380;28;20631;-80
2021/01/19 10:34:35;;;;;;;13.65;5.57;;;3.60;82.30;;;;;;5017318;28;20174;-81
2021/01/19 10:37:01;;;;;;;15.52;5.57;;;3.60;82.10;;;;;;5017082;28;20194;-81
2021/01/19 10:39:30;;;;;;;7.57;4.18;;;3.60;81.90;;;;;;5017201;28;20175;-81
2021/01/19 10:41:57;;;;;;;14.45;5.10;;;3.70;82.30;;;;;;5017511;28;20565;-81
2021/01/19 10:44:24;;;;;;;11.38;4.97;;;3.70;81.90;;;;;;5018497;28;20656;-81
2021/01/19 10:46:58;;;;;;;16.70;6.93;;;3.80;81.90;;;;;;5017079;28;20174;-81
2021/01/19 10:49:31;;;;;;;11.38;4.93;;;3.80;82.00;;;;;;5017388;28;20229;-81
2021/01/19 10:51:58;;;;;;;10.43;5.18;;;3.80;82.00;;;;;;5017143;28;20167;-81
2021/01/19 10:54:25;;;;;;;15.73;5.70;;;3.80;82.10;;;;;;5017332;28;20545;-81
2021/01/19 10:57:06;;;;;;;12.02;5.05;;;3.80;83.30;;;;;;5017610;28;20229;-81
2021/01/19 10:59:32;;;;;;;11.88;6.05;;;3.80;83.10;;;;;;5018535;28;20575;-81
2021/01/19 11:01:58;;;;;;;15.43;6.32;;;3.80;83.50;;;;;;5018196;28;20536;-81
2021/01/19 11:04:27;;;;;;;17.58;5.43;;;3.90;83.70;;;;;;5019036;28;20171;-81
2021/01/19 11:06:53;;;;;;;14.45;5.47;;;3.80;83.30;;;;;;5018018;28;20238;-81
2021/01/19 11:09:19;;;;;;;14.67;6.40;;;3.90;83.40;;;;;;5016182;28;20309;-81
2021/01/19 11:11:45;;;;;;;9.70;4.78;;;4.00;83.30;;;;;;5016390;28;20429;-81
2021/01/19 11:14:11;;;;;;;10.55;5.60;;;4.00;83.70;;;;;;5016325;28;20190;-81
2021/01/19 11:16:41;;;;;;;14.23;6.20;;;4.00;82.40;;;;;;5016811;28;20175;-81
2021/01/19 11:19:10;;;;;;;11.52;5.07;;;4.10;84.10;;;;;;5016359;28;20649;-81
2021/01/19 11:21:37;;;;;;;11.38;5.30;;;4.00;82.80;;;;;;5016018;28;20589;-81
2021/01/19 11:24:05;;;;;;;20.45;5.63;;;4.10;83.30;;;;;;5016098;28;20171;-81
2021/01/19 11:26:31;;;;;;;15.70;5.65;;;4.10;83.70;;;;;;5016522;28;20175;-81
2021/01/19 11:28:58;;;;;;;13.93;4.55;;;4.10;82.30;;;;;;5017071;28;20205;-81
2021/01/19 11:31:30;;;;;;;18.40;5.97;;;4.10;82.30;;;;;;5018888;28;20167;-81
2021/01/19 11:33:57;;;;;;;15.43;5.78;;;4.10;82.30;;;;;;5021106;28;20166;-81
2021/01/19 11:36:24;;;;;;;31.65;7.50;;;4.20;81.70;;;;;;5020689;28;20170;-81
2021/01/19 11:38:51;;;;;;;15.07;5.75;;;4.20;82.00;;;;;;5020712;28;20344;-81
2021/01/19 11:41:23;;;;;;;13.50;5.22;;;4.20;81.30;;;;;;5019218;28;20189;-81
2021/01/19 11:43:49;;;;;;;11.40;4.90;;;4.30;81.20;;;;;;5019941;28;20175;-82
2021/01/19 11:46:24;;;;;;;16.60;4.97;;;4.30;81.30;;;;;;5019365;28;20261;-81
2021/01/19 11:48:50;;;;;;;11.52;4.90;;;4.30;80.90;;;;;;5020602;28;20257;-81
2021/01/19 11:51:21;;;;;;;20.35;5.85;;;4.40;81.00;;;;;;5021640;28;20170;-81
2021/01/19 11:53:49;;;;;;;12.68;4.03;;;4.60;80.80;;;;;;5019560;28;20242;-81
2021/01/19 11:56:15;;;;;;;5.88;3.65;;;4.60;79.80;;;;;;5019266;28;20174;-81
2021/01/19 11:58:42;;;;;;;18.20;5.40;;;4.70;80.20;;;;;;5018970;28;20678;-81
2021/01/19 12:01:08;;;;;;;11.65;5.35;;;4.80;80.50;;;;;;5018799;28;20170;-81
2021/01/19 12:03:34;;;;;;;15.07;5.10;;;4.80;79.20;;;;;;5018974;28;20179;-81
2021/01/19 12:06:00;;;;;;;14.70;5.20;;;4.90;79.40;;;;;;5018989;28;20173;-82
2021/01/19 12:08:25;;;;;;;20.50;6.47;;;4.90;78.30;;;;;;5019931;28;20274;-81
2021/01/19 12:10:51;;;;;;;19.57;6.73;;;5.00;78.80;;;;;;5020411;28;20182;-81
2021/01/19 12:13:17;;;;;;;10.90;4.87;;;5.10;78.30;;;;;;5021220;28;20178;-81
2021/01/19 12:15:43;;;;;;;15.13;4.40;;;5.10;78.50;;;;;;5019799;28;20925;-81
2021/01/19 12:18:10;;;;;;;11.18;4.07;;;5.10;78.80;;;;;;5019488;28;20214;-81
2021/01/19 12:20:37;;;;;;;8.40;3.67;;;5.20;78.80;;;;;;5020694;28;20167;-82
2021/01/19 12:23:04;;;;;;;12.23;4.05;;;5.20;78.30;;;;;;5020567;28;20167;-81
2021/01/19 12:25:30;;;;;;;9.75;3.53;;;5.20;77.10;;;;;;5020376;28;20183;-81
2021/01/19 12:27:57;;;;;;;9.90;3.53;;;5.20;79.10;;;;;;5019985;28;20198;-81
2021/01/19 12:30:24;;;;;;;5.68;3.00;;;5.20;78.30;;;;;;5019486;28;20175;-81
2021/01/19 12:32:50;;;;;;;8.52;3.25;;;5.30;78.90;;;;;;5019652;28;20233;-81
2021/01/19 12:35:15;;;;;;;3.97;2.77;;;5.30;78.30;;;;;;5019658;28;20577;-81
2021/01/19 12:37:41;;;;;;;7.40;2.70;;;5.30;78.40;;;;;;5020118;28;20461;-81
2021/01/19 12:40:08;;;;;;;7.07;3.00;;;5.30;77.70;;;;;;5018570;28;20508;-81
2021/01/19 12:42:33;;;;;;;9.77;2.97;;;5.40;77.60;;;;;;5018297;28;20413;-81
2021/01/19 12:44:59;;;;;;;12.03;4.20;;;5.30;77.80;;;;;;5018456;28;20171;-81
2021/01/19 12:47:25;;;;;;;8.43;3.43;;;5.30;78.30;;;;;;5018835;28;20469;-81
2021/01/19 12:49:51;;;;;;;9.48;3.42;;;5.40;77.30;;;;;;5018471;28;20410;-81
2021/01/19 12:52:18;;;;;;;7.18;3.55;;;5.40;77.70;;;;;;5019585;28;20186;-81
2021/01/19 12:54:44;;;;;;;6.63;3.08;;;5.50;77.60;;;;;;5021184;28;20674;-81
2021/01/19 12:57:13;;;;;;;7.23;3.10;;;5.50;78.30;;;;;;5017928;28;20206;-81
2021/01/19 12:59:42;;;;;;;9.10;3.67;;;5.50;78.70;;;;;;5018285;28;20457;-81
2021/01/19 13:02:09;;;;;;;6.07;2.78;;;5.50;79.20;;;;;;5018295;28;20178;-81
2021/01/19 13:04:35;;;;;;;5.10;2.95;;;5.50;80.10;;;;;;5018773;28;20166;-81
2021/01/19 13:07:01;;;;;;;3.95;2.70;;;5.50;78.70;;;;;;5018952;28;20193;-81
2021/01/19 13:09:27;;;;;;;6.88;2.58;;;5.60;80.50;;;;;;5019190;28;20170;-81
2021/01/19 13:11:53;;;;;;;14.57;2.85;;;5.50;81.40;;;;;;5019359;28;20174;-81
2021/01/19 13:14:19;;;;;;;7.80;3.80;;;5.50;82.60;;;;;;5019751;28;20175;-82
2021/01/19 13:16:45;;;;;;;7.33;2.73;;;5.50;82.00;;;;;;5018731;28;20270;-81